Time;durP1;ratioP1;P1;durP2;ratioP2;P2;SDS_P1;SDS_P2;PMS_P1;PMS_P2;Temp;Humidity;BMP_temperature;BMP_pressure;BME280_temperature;BME280_humidity;BME280_pressure;Samples;Min_cycle;Max_cycle;Signal;HPM_P1;HPM_P2
2024/03/10 00:00:14;;;;;;;37.70;13.70;;;;;;;-1.21;62.93;98920.00;104818;1264;72718;-28
2024/03/10 00:02:46;;;;;;;37.00;14.40;;;;;;;-1.39;63.61;98919.11;104802;1264;62722;-28
2024/03/10 00:05:14;;;;;;;27.10;11.20;;;;;;;-1.48;63.59;98917.02;105086;1265;61175;-28
2024/03/10 00:07:43;;;;;;;28.70;14.30;;;;;;;-1.71;63.30;98923.73;105020;1269;71837;-28
2024/03/10 00:10:17;;;;;;;37.90;16.60;;;;;;;-1.87;66.11;98925.61;104916;1269;74263;-28
2024/03/10 00:12:48;;;;;;;38.00;13.70;;;;;;;-1.98;68.48;98923.77;104936;1269;72659;-28
2024/03/10 00:15:16;;;;;;;29.60;14.40;;;;;;;-2.03;69.12;98921.89;104726;1264;61118;-28
2024/03/10 00:17:44;;;;;;;34.50;12.20;;;;;;;-2.09;67.45;98917.98;104809;1264;61164;-28
2024/03/10 00:20:13;;;;;;;23.10;8.50;;;;;;;-1.51;67.92;98916.92;104929;1263;71524;-30
2024/03/10 00:22:41;;;;;;;43.90;16.80;;;;;;;-0.40;66.19;98915.52;104883;1266;73221;-28
2024/03/10 00:32:44;;;;;;;33.40;15.60;;;;;;;-0.35;63.12;98910.23;102738;1292;600627;-28
2024/03/10 00:35:12;;;;;;;42.70;17.10;;;;;;;-0.57;63.54;98904.77;105156;1270;61164;-28
2024/03/10 00:45:17;;;;;;;30.30;13.80;;;;;;;-1.42;65.34;98894.67;102663;1294;600132;-27
2024/03/10 00:47:45;;;;;;;29.80;12.60;;;;;;;-1.60;65.93;98894.26;104804;1266;61177;-28
2024/03/10 00:50:13;;;;;;;38.50;16.90;;;;;;;-1.74;66.38;98895.40;104826;1267;61162;-28
2024/03/10 01:00:20;;;;;;;39.10;18.60;;;;;;;-0.14;64.01;98899.67;102708;1294;599481;-27
2024/03/10 01:02:49;;;;;;;43.10;19.00;;;;;;;-0.30;64.04;98896.03;104882;1265;61319;-28
2024/03/10 01:05:17;;;;;;;33.20;17.50;;;;;;;-0.53;64.29;98897.25;104860;1264;61111;-28
2024/03/10 01:07:45;;;;;;;34.90;15.30;;;;;;;-0.70;63.97;98894.81;104843;1271;72227;-28
2024/03/10 01:10:13;;;;;;;36.90;13.40;;;;;;;-0.95;64.02;98890.65;105001;1264;74310;-28
2024/03/10 01:12:41;;;;;;;29.20;11.90;;;;;;;-1.21;63.94;98886.98;104716;1267;72630;-28
2024/03/10 01:22:45;;;;;;;33.80;12.90;;;;;;;-1.85;65.52;98880.46;102682;1292;600009;-27
2024/03/10 01:25:12;;;;;;;33.60;13.30;;;;;;;-1.92;66.28;98886.83;104835;1266;61070;-28
2024/03/10 01:27:40;;;;;;;33.10;12.60;;;;;;;-2.04;66.88;98888.22;104857;1269;61176;-28
2024/03/10 01:30:09;;;;;;;28.40;9.50;;;;;;;-2.14;66.77;98889.05;105323;1265;71044;-28
2024/03/10 01:32:37;;;;;;;23.50;9.00;;;;;;;-1.63;67.57;98886.52;105398;1264;74280;-28
2024/03/10 01:35:29;;;;;;;23.90;9.40;;;;;;;-0.57;65.50;98889.55;105466;1260;72650;-28
2024/03/10 01:37:57;;;;;;;38.10;12.70;;;;;;;-0.16;63.67;98889.67;103155;1256;61234;-28
2024/03/10 01:40:24;;;;;;;33.50;12.70;;;;;;;-0.29;63.47;98887.13;105618;1261;61353;-28
2024/03/10 01:42:55;;;;;;;36.00;12.50;;;;;;;-0.54;63.50;98890.98;105525;1260;61151;-28
2024/03/10 01:45:22;;;;;;;34.20;14.10;;;;;;;-0.82;64.14;98891.00;105134;1264;72266;-28
2024/03/10 01:55:37;;;;;;;20.00;9.70;;;;;;;-1.69;65.73;98880.43;102758;1295;599417;-28
2024/03/10 01:58:05;;;;;;;25.00;10.30;;;;;;;-1.91;65.99;98876.91;105083;1269;61156;-27
2024/03/10 02:00:38;;;;;;;22.60;9.80;;;;;;;-2.04;65.95;98875.33;104819;1269;61088;-27
2024/03/10 02:03:06;;;;;;;19.50;8.50;;;;;;;-2.19;66.66;98874.74;105091;1272;72181;-27
2024/03/10 02:05:33;;;;;;;31.70;12.10;;;;;;;-2.33;66.62;98874.87;104934;1264;74294;-27
2024/03/10 02:08:01;;;;;;;21.50;8.50;;;;;;;-2.51;67.95;98873.37;104871;1270;72672;-27
2024/03/10 02:10:29;;;;;;;26.10;9.70;;;;;;;-1.95;68.66;98875.48;104851;1267;61165;-27
2024/03/10 02:12:56;;;;;;;44.00;16.30;;;;;;;-0.81;66.38;98877.50;105009;1266;61113;-27
2024/03/10 02:15:24;;;;;;;45.60;20.20;;;;;;;-0.32;64.67;98874.45;105097;1264;73184;-27
2024/03/10 02:17:52;;;;;;;33.00;13.30;;;;;;;-0.32;63.88;98877.00;105269;1266;74326;-27
2024/03/10 02:20:22;;;;;;;34.60;18.50;;;;;;;-0.52;63.21;98877.29;105194;1263;72612;-27
2024/03/10 02:22:50;;;;;;;48.70;19.50;;;;;;;-0.83;63.65;98874.16;105208;1264;61189;-27
2024/03/10 02:25:22;;;;;;;44.50;16.20;;;;;;;-1.10;64.02;98874.63;105290;1266;61121;-27
2024/03/10 02:27:52;;;;;;;23.80;11.70;;;;;;;-1.35;63.76;98875.88;105243;1266;73021;-27
2024/03/10 02:30:29;;;;;;;31.70;13.00;;;;;;;-1.60;64.30;98871.63;105215;1268;74336;-27
2024/03/10 02:47:12;;;;;;;38.00;15.70;;;;;;;-1.97;65.18;98878.30;105224;1265;61258;-27
2024/03/10 02:47:15;;;;;;;24.00;9.20;;;;;;;-2.68;67.08;98874.23;105211;1261;73129;-27
2024/03/10 02:49:43;;;;;;;24.60;8.20;;;;;;;-2.28;68.05;98877.58;105114;1265;61626;-27
2024/03/10 02:52:12;;;;;;;30.50;9.80;;;;;;;-1.12;66.73;98878.77;105005;1266;61520;-27
2024/03/10 02:54:40;;;;;;;41.70;16.90;;;;;;;-0.59;65.26;98880.27;105261;1266;72930;-27
2024/03/10 02:57:08;;;;;;;56.10;16.30;;;;;;;-0.56;64.65;98883.73;105189;1265;74440;-27
2024/03/10 02:59:35;;;;;;;37.20;16.40;;;;;;;-0.75;64.58;98883.42;105200;1266;72666;-27
2024/03/10 03:02:03;;;;;;;28.80;14.50;;;;;;;-1.04;64.63;98885.00;105082;1264;61164;-27
2024/03/10 03:04:31;;;;;;;38.70;14.90;;;;;;;-1.39;64.80;98884.02;105082;1265;61111;-27
2024/03/10 03:06:58;;;;;;;36.20;13.70;;;;;;;-1.75;65.51;98884.22;104906;1266;72982;-27
2024/03/10 03:16:45;;;;;;;29.50;11.40;;;;;;;-2.52;66.95;98885.80;102710;1292;600699;-27
2024/03/10 03:26:53;;;;;;;22.70;11.10;;;;;;;-2.97;69.32;98887.97;102691;1292;599389;-27
2024/03/10 03:29:20;;;;;;;33.80;10.00;;;;;;;-3.03;71.41;98888.98;104918;1270;62845;-28
2024/03/10 03:31:48;;;;;;;30.30;9.20;;;;;;;-2.38;70.56;98893.00;104823;1270;61118;-28
2024/03/10 03:34:16;;;;;;;32.70;12.60;;;;;;;-1.29;67.98;98890.98;104824;1266;71650;-28
2024/03/10 03:36:44;;;;;;;28.50;13.00;;;;;;;-0.94;65.20;98890.11;104839;1266;74376;-28
2024/03/10 03:39:13;;;;;;;27.90;13.90;;;;;;;-1.06;64.45;98888.30;104813;1266;72720;-28
2024/03/10 03:41:56;;;;;;;33.60;15.40;;;;;;;-1.29;64.71;98885.88;105031;1264;170425;-28
2024/03/10 03:49:23;;;;;;;25.80;9.70;;;;;;;-2.02;65.70;98883.39;105181;1266;73534;-28
2024/03/10 03:51:51;;;;;;;20.50;9.60;;;;;;;-2.23;65.94;98883.89;105172;1263;74335;-28
2024/03/10 04:00:57;;;;;;;21.20;7.90;;;;;;;-2.94;68.51;98884.66;102665;1294;600223;-27
2024/03/10 04:03:25;;;;;;;46.50;16.20;;;;;;;-3.10;68.58;98886.81;104929;1265;61248;-28
2024/03/10 04:05:52;;;;;;;40.60;17.60;;;;;;;-3.23;68.99;98884.95;104811;1270;61133;-28
2024/03/10 04:08:21;;;;;;;28.70;13.70;;;;;;;-3.36;68.84;98884.81;104901;1266;72260;-28
2024/03/10 04:10:50;;;;;;;15.90;7.10;;;;;;;-3.48;69.41;98886.11;104854;1267;73332;-27
2024/03/10 04:21:35;;;;;;;25.20;12.10;;;;;;;-1.52;65.75;98891.12;102613;1289;615019;-27
2024/03/10 04:24:04;;;;;;;29.20;13.00;;;;;;;-1.81;65.64;98889.34;105144;1264;61001;-27
2024/03/10 04:26:31;;;;;;;41.80;13.90;;;;;;;-2.02;66.51;98893.60;105140;1264;61574;-26
2024/03/10 04:28:58;;;;;;;29.40;10.80;;;;;;;-2.20;66.58;98893.16;105154;1264;72016;-26
2024/03/10 04:31:25;;;;;;;27.10;10.90;;;;;;;-2.42;66.24;98892.13;105144;1269;74004;-26
2024/03/10 04:34:00;;;;;;;29.30;11.80;;;;;;;-2.62;66.56;98892.89;102671;1264;3325135;-26
2024/03/10 04:40:56;;;;;;;13.70;7.90;;;;;;;-3.08;67.65;98889.46;105206;1262;61607;-27
2024/03/10 04:43:23;;;;;;;25.40;10.60;;;;;;;-3.23;68.36;98892.76;105204;1264;72044;-27
2024/03/10 04:45:52;;;;;;;31.10;10.70;;;;;;;-3.33;68.80;98895.57;105188;1266;74298;-27
2024/03/10 04:48:20;;;;;;;25.50;8.00;;;;;;;-3.43;69.90;98898.40;105021;1263;72449;-27
2024/03/10 04:50:48;;;;;;;15.30;6.40;;;;;;;-2.84;70.20;98902.86;105098;1266;61111;-28
2024/03/10 04:53:15;;;;;;;24.50;10.70;;;;;;;-1.73;68.04;98907.98;105161;1264;61256;-28
2024/03/10 04:55:43;;;;;;;34.00;13.70;;;;;;;-1.31;66.35;98910.48;105219;1266;71475;-28
2024/03/10 04:58:10;;;;;;;42.50;15.10;;;;;;;-1.33;65.63;98910.56;105972;1251;74044;-27
2024/03/10 05:00:37;;;;;;;22.40;9.20;;;;;;;-1.49;65.45;98908.55;105980;1251;72990;-27
2024/03/10 05:03:05;;;;;;;43.60;15.00;;;;;;;-1.72;65.81;98911.00;105971;1251;61545;-28
2024/03/10 05:05:32;;;;;;;24.70;9.80;;;;;;;-1.92;65.75;98907.41;105794;1254;61165;-27
2024/03/10 05:07:59;;;;;;;28.60;11.90;;;;;;;-2.10;66.64;98905.09;105956;1251;73207;-28
2024/03/10 05:10:26;;;;;;;23.50;11.80;;;;;;;-2.19;66.74;98908.10;105961;1252;74317;-27
2024/03/10 05:12:53;;;;;;;31.80;13.00;;;;;;;-2.20;67.18;98910.50;105929;1251;73071;-27
2024/03/10 05:15:20;;;;;;;39.20;14.30;;;;;;;-2.16;67.28;98915.30;105939;1257;61049;-27
2024/03/10 05:17:47;;;;;;;28.20;14.00;;;;;;;-2.10;67.52;98918.02;106032;1251;61164;-27
2024/03/10 05:20:15;;;;;;;33.20;15.20;;;;;;;-2.04;67.09;98921.05;105962;1251;73013;-27
2024/03/10 05:22:42;;;;;;;28.00;13.30;;;;;;;-1.98;68.06;98923.62;105857;1251;74341;-27
2024/03/10 05:25:10;;;;;;;30.90;11.60;;;;;;;-1.23;68.67;98928.73;105906;1251;73204;-27
2024/03/10 05:27:41;;;;;;;44.10;17.10;;;;;;;0.10;66.08;98930.64;105629;1251;61111;-27
2024/03/10 05:30:09;;;;;;;43.10;18.40;;;;;;;0.79;63.87;98931.73;105973;1251;61116;-27
2024/03/10 05:32:36;;;;;;;42.70;20.00;;;;;;;0.94;62.35;98930.93;105784;1251;72986;-27
2024/03/10 05:35:05;;;;;;;42.60;19.90;;;;;;;0.94;62.18;98934.30;106006;1251;74131;-27
2024/03/10 05:37:32;;;;;;;37.50;16.10;;;;;;;0.92;62.22;98935.96;105878;1251;72457;-27
2024/03/10 05:39:59;;;;;;;38.10;16.90;;;;;;;0.84;62.22;98938.70;105922;1251;61213;-28
2024/03/10 05:42:26;;;;;;;33.70;18.20;;;;;;;0.85;62.52;98939.51;105925;1255;61712;-27
2024/03/10 05:44:53;;;;;;;42.20;18.90;;;;;;;0.92;62.96;98938.55;105904;1251;72891;-28
2024/03/10 05:47:50;;;;;;;41.10;19.10;;;;;;;1.01;63.12;98941.36;105658;1251;74200;-27
2024/03/10 05:50:38;;;;;;;38.50;14.30;;;;;;;1.06;63.09;98945.59;105895;1252;72667;-27
2024/03/10 05:53:05;;;;;;;35.80;15.70;;;;;;;0.84;62.97;98943.85;105925;1251;61081;-28
2024/03/10 05:55:32;;;;;;;37.40;15.10;;;;;;;0.62;63.75;98947.14;105696;1251;61114;-28
2024/03/10 05:57:59;;;;;;;36.80;17.40;;;;;;;0.54;64.46;98947.63;105752;1251;72782;-28
2024/03/10 06:00:26;;;;;;;42.20;19.70;;;;;;;0.64;64.67;98945.67;105868;1251;74798;-28
2024/03/10 06:02:53;;;;;;;27.90;12.10;;;;;;;0.73;64.99;98943.92;105882;1251;72644;-28
2024/03/10 06:05:21;;;;;;;30.60;13.60;;;;;;;1.43;64.99;98944.64;105837;1251;61058;-27
2024/03/10 06:07:48;;;;;;;47.40;18.90;;;;;;;2.53;62.55;98947.34;105724;1257;61156;-28
2024/03/10 06:10:14;;;;;;;40.10;17.60;;;;;;;2.97;61.41;98949.77;105928;1251;73064;-28
2024/03/10 06:12:42;;;;;;;51.50;20.20;;;;;;;3.02;60.76;98948.84;106005;1251;74290;-28
2024/03/10 06:15:10;;;;;;;36.90;14.70;;;;;;;2.89;61.24;98949.11;105783;1256;72660;-28
2024/03/10 06:17:40;;;;;;;32.40;15.90;;;;;;;2.60;61.56;98950.95;105565;1251;61094;-28
2024/03/10 06:25:39;;;;;;;32.20;16.90;;;;;;;2.05;60.96;98953.77;105791;1251;74134;-27
2024/03/10 06:28:06;;;;;;;41.90;18.10;;;;;;;2.03;60.98;98949.42;105962;1255;72474;-27
2024/03/10 06:30:35;;;;;;;32.70;16.50;;;;;;;2.09;60.90;98953.10;105908;1251;61055;-27
2024/03/10 06:33:02;;;;;;;40.50;18.40;;;;;;;2.17;60.87;98954.08;105803;1257;61121;-27
2024/03/10 06:35:29;;;;;;;36.40;18.20;;;;;;;2.27;60.85;98956.67;105735;1254;73393;-28
2024/03/10 06:37:56;;;;;;;41.30;18.10;;;;;;;2.37;60.97;98962.52;105752;1251;74114;-27
2024/03/10 06:40:23;;;;;;;49.10;19.90;;;;;;;2.50;60.47;98963.75;105926;1255;72979;-27
2024/03/10 06:42:50;;;;;;;41.50;19.90;;;;;;;2.62;60.81;98964.77;105794;1251;61099;-28
2024/03/10 06:45:17;;;;;;;34.30;17.30;;;;;;;2.77;60.60;98963.45;105909;1255;61170;-27
2024/03/10 06:47:44;;;;;;;44.40;19.30;;;;;;;3.02;59.83;98963.42;105981;1251;73658;-27
2024/03/10 06:50:11;;;;;;;37.80;19.50;;;;;;;3.28;59.31;98967.02;105986;1251;74231;-27
2024/03/10 06:52:38;;;;;;;47.00;20.60;;;;;;;3.54;58.76;98964.66;105973;1251;72499;-27
2024/03/10 06:55:07;;;;;;;47.60;22.90;;;;;;;3.91;58.31;98963.67;105686;1257;61087;-27
2024/03/10 06:57:33;;;;;;;76.70;33.10;;;;;;;4.30;57.47;98963.95;105576;1251;61170;-27
2024/03/10 07:00:00;;;;;;;129.10;50.20;;;;;;;4.62;56.83;98962.79;105986;1251;72810;-27
2024/03/10 07:02:28;;;;;;;74.30;30.90;;;;;;;4.91;56.52;98964.37;105805;1251;74274;-28
2024/03/10 07:04:56;;;;;;;134.90;49.30;;;;;;;5.24;54.82;98964.34;105779;1255;72717;-27
2024/03/10 07:07:26;;;;;;;67.80;27.50;;;;;;;5.49;55.12;98965.88;105791;1251;61136;-27
2024/03/10 07:09:53;;;;;;;210.20;79.30;;;;;;;5.80;54.14;98964.30;105704;1257;61066;-27
2024/03/10 07:12:20;;;;;;;99.40;46.60;;;;;;;6.01;52.80;98969.77;105903;1251;73677;-27
2024/03/10 07:14:47;;;;;;;329.60;119.70;;;;;;;5.97;51.48;98969.30;105813;1256;74038;-27
2024/03/10 07:17:15;;;;;;;257.40;98.00;;;;;;;6.04;50.68;98967.15;105852;1253;72659;-27
2024/03/10 07:19:42;;;;;;;163.40;70.30;;;;;;;6.25;50.56;98970.63;105742;1254;61196;-27
2024/03/10 07:22:09;;;;;;;34.20;18.20;;;;;;;6.61;47.96;98965.71;105815;1251;61114;-27
2024/03/10 07:24:39;;;;;;;40.30;19.40;;;;;;;6.74;44.93;98964.84;105934;1251;72876;-27
2024/03/10 07:27:05;;;;;;;32.60;17.70;;;;;;;7.07;45.10;98964.91;105845;1257;74689;-27
2024/03/10 07:29:33;;;;;;;28.70;15.30;;;;;;;7.35;45.15;98967.33;105876;1251;72472;-27
2024/03/10 07:32:00;;;;;;;30.20;15.10;;;;;;;7.68;45.39;98970.40;105764;1251;60997;-27
2024/03/10 07:34:28;;;;;;;37.00;17.50;;;;;;;8.02;45.23;98970.75;105564;1257;61100;-27
2024/03/10 07:36:55;;;;;;;46.10;22.50;;;;;;;8.28;45.42;98972.72;105828;1251;72710;-27
2024/03/10 07:39:31;;;;;;;160.00;67.70;;;;;;;8.18;43.11;98971.15;105912;1251;74399;-26
2024/03/10 07:42:51;;;;;;;406.10;220.60;;;;;;;8.19;44.18;98971.45;105854;1254;72354;-27
2024/03/10 07:45:24;;;;;;;97.00;60.70;;;;;;;8.57;41.94;98969.05;105885;1251;61129;-27
2024/03/10 07:47:51;;;;;;;50.70;29.70;;;;;;;8.47;42.14;98967.98;105891;1251;61096;-26
2024/03/10 07:50:18;;;;;;;44.70;25.10;;;;;;;8.47;41.96;98963.21;105855;1251;72842;-27
2024/03/10 07:52:46;;;;;;;40.50;22.70;;;;;;;8.97;40.82;98963.63;105806;1251;73150;-28
2024/03/10 07:55:16;;;;;;;23.20;13.20;;;;;;;9.21;37.97;98960.60;105940;1257;72973;-27
2024/03/10 07:57:43;;;;;;;28.00;14.60;;;;;;;9.40;37.25;98960.73;105980;1251;61016;-27
2024/03/10 08:00:21;;;;;;;209.80;108.10;;;;;;;9.87;38.46;98965.04;105761;1251;61140;-27
2024/03/10 08:02:48;;;;;;;61.90;33.50;;;;;;;10.23;39.39;98967.84;105669;1251;74578;-27
2024/03/10 08:05:16;;;;;;;165.30;91.10;;;;;;;10.49;39.22;98966.83;105876;1251;75581;-27
2024/03/10 08:07:43;;;;;;;63.30;35.30;;;;;;;10.85;39.48;98968.94;105812;1251;72805;-27
2024/03/10 08:10:14;;;;;;;37.50;21.80;;;;;;;10.90;37.89;98971.92;105745;1256;61233;-27
2024/03/10 08:12:45;;;;;;;30.70;17.90;;;;;;;11.37;37.11;98974.95;105909;1255;61189;-27
2024/03/10 08:15:12;;;;;;;53.40;28.30;;;;;;;11.71;36.87;98974.30;105711;1251;73182;-27
2024/03/10 08:17:39;;;;;;;53.50;31.40;;;;;;;11.97;36.08;98976.70;105623;1257;74195;-27
2024/03/10 08:20:08;;;;;;;21.40;12.50;;;;;;;12.07;34.24;98974.48;105859;1251;72406;-27
2024/03/10 08:22:38;;;;;;;86.40;47.40;;;;;;;12.43;35.17;98976.56;105706;1251;61070;-25
2024/03/10 08:25:06;;;;;;;32.10;18.70;;;;;;;12.66;34.18;98971.84;105788;1257;61228;-25
2024/03/10 08:27:36;;;;;;;25.10;15.20;;;;;;;12.79;32.66;98968.70;105659;1251;72825;-26
2024/03/10 08:30:04;;;;;;;26.20;15.10;;;;;;;13.09;33.14;98965.51;105867;1251;74392;-26
2024/03/10 08:32:31;;;;;;;20.60;13.00;;;;;;;13.32;33.11;98959.35;105896;1257;72611;-26
2024/03/10 08:34:58;;;;;;;18.40;11.00;;;;;;;13.26;32.13;98962.02;105814;1254;61160;-25
2024/03/10 08:37:28;;;;;;;18.50;10.50;;;;;;;13.19;32.34;98965.99;105961;1251;61124;-26
2024/03/10 08:39:54;;;;;;;14.50;9.10;;;;;;;13.12;32.56;98969.79;105787;1251;73687;-26
2024/03/10 08:42:24;;;;;;;18.30;9.70;;;;;;;13.41;32.40;98967.52;105765;1251;74380;-27
2024/03/10 08:44:51;;;;;;;13.90;8.80;;;;;;;13.55;29.58;98961.26;105857;1256;72524;-26
2024/03/10 08:47:18;;;;;;;21.20;13.20;;;;;;;13.29;30.02;98961.21;105920;1252;61174;-26
2024/03/10 08:49:45;;;;;;;34.30;20.60;;;;;;;12.75;29.60;98966.05;105723;1256;61473;-26
2024/03/10 08:52:13;;;;;;;17.50;10.70;;;;;;;13.17;29.26;98959.63;105934;1251;75333;-26
2024/03/10 08:54:40;;;;;;;15.30;9.00;;;;;;;12.66;29.40;98960.89;106004;1254;74164;-26
2024/03/10 08:57:09;;;;;;;14.60;8.70;;;;;;;12.22;29.42;98959.08;105927;1251;72455;-27
2024/03/10 08:59:36;;;;;;;13.10;7.80;;;;;;;13.03;28.83;98957.13;105937;1252;61247;-26
2024/03/10 09:02:03;;;;;;;15.00;7.90;;;;;;;13.34;28.78;98957.74;105937;1256;61173;-26
2024/03/10 09:04:30;;;;;;;14.00;8.60;;;;;;;13.57;28.19;98952.61;105996;1251;74403;-26
2024/03/10 09:06:57;;;;;;;13.30;6.80;;;;;;;13.78;27.98;98958.54;105732;1251;75834;-26
2024/03/10 09:09:24;;;;;;;16.80;8.40;;;;;;;13.89;27.67;98954.89;105746;1251;72717;-26
2024/03/10 09:11:51;;;;;;;12.70;7.80;;;;;;;14.16;28.35;98953.94;105885;1251;61141;-26
2024/03/10 09:14:18;;;;;;;12.50;7.50;;;;;;;14.38;27.44;98953.74;105918;1257;61134;-27
2024/03/10 09:16:46;;;;;;;14.00;8.60;;;;;;;13.35;27.58;98951.73;105681;1251;73010;-30
2024/03/10 09:19:14;;;;;;;13.20;8.80;;;;;;;12.59;28.57;98955.30;105814;1251;75758;-26
2024/03/10 09:21:43;;;;;;;14.20;9.10;;;;;;;13.64;28.76;98952.73;105892;1254;72584;-27
2024/03/10 09:24:14;;;;;;;15.00;9.80;;;;;;;14.25;28.09;98954.00;105728;1254;61142;-27
2024/03/10 09:26:41;;;;;;;20.80;9.60;;;;;;;14.70;27.33;98955.30;105744;1257;61132;-26
2024/03/10 09:29:09;;;;;;;16.10;8.90;;;;;;;15.01;27.23;98956.66;105715;1251;73417;-27
2024/03/10 09:31:39;;;;;;;17.50;10.80;;;;;;;15.04;27.42;98956.31;105941;1251;76265;-26
2024/03/10 09:34:07;;;;;;;28.90;16.70;;;;;;;14.49;27.88;98954.96;105707;1251;73974;-27
2024/03/10 09:36:33;;;;;;;15.30;10.50;;;;;;;14.35;27.26;98956.48;105735;1251;61573;-26
2024/03/10 09:39:00;;;;;;;14.70;9.50;;;;;;;15.15;27.29;98955.41;105976;1253;61204;-26
2024/03/10 09:41:29;;;;;;;14.70;9.80;;;;;;;15.52;26.35;98957.58;105916;1251;73802;-26
2024/03/10 09:43:57;;;;;;;12.10;7.80;;;;;;;14.71;25.81;98959.06;105909;1257;76258;-26
2024/03/10 09:46:23;;;;;;;11.60;7.90;;;;;;;14.87;26.22;98961.65;105710;1254;73142;-26
2024/03/10 09:48:50;;;;;;;14.40;8.70;;;;;;;15.44;26.18;98956.93;105857;1251;61220;-27
2024/03/10 09:51:19;;;;;;;12.10;7.90;;;;;;;15.80;26.13;98957.95;105963;1251;61093;-27
2024/03/10 09:53:46;;;;;;;15.50;8.70;;;;;;;16.09;25.62;98954.15;105835;1251;73830;-27
2024/03/10 09:56:13;;;;;;;16.50;11.10;;;;;;;16.03;25.92;98955.98;105780;1257;76299;-26
2024/03/10 09:58:50;;;;;;;18.70;10.60;;;;;;;15.82;26.31;98956.23;105532;1251;72312;-26
2024/03/10 10:01:21;;;;;;;15.40;9.50;;;;;;;16.18;26.31;98954.77;105804;1251;61053;-26
2024/03/10 10:03:49;;;;;;;24.50;11.30;;;;;;;15.66;26.13;98953.07;105858;1257;61118;-27
2024/03/10 10:06:18;;;;;;;20.40;12.30;;;;;;;14.23;27.74;98947.20;105622;1260;72604;-27
2024/03/10 10:08:45;;;;;;;17.40;10.40;;;;;;;14.23;27.79;98945.10;105619;1252;74153;-27
2024/03/10 10:11:13;;;;;;;17.70;8.60;;;;;;;14.80;26.98;98949.97;105707;1251;72347;-26
2024/03/10 10:13:42;;;;;;;14.60;7.60;;;;;;;14.71;26.52;98946.11;105652;1254;61132;-27
2024/03/10 10:16:09;;;;;;;12.80;7.30;;;;;;;15.43;25.93;98943.24;105847;1254;61328;-26
2024/03/10 10:18:36;;;;;;;14.40;8.60;;;;;;;15.90;25.49;98941.21;105937;1251;73514;-27
2024/03/10 10:21:13;;;;;;;15.10;8.40;;;;;;;16.34;25.57;98940.45;105942;1251;74346;-26
2024/03/10 10:23:40;;;;;;;14.90;9.30;;;;;;;14.42;27.47;98937.38;105945;1251;72724;-26
2024/03/10 10:26:12;;;;;;;14.20;7.20;;;;;;;13.63;28.20;98935.48;105949;1251;61042;-26
2024/03/10 10:28:41;;;;;;;15.70;8.30;;;;;;;15.02;26.89;98937.61;105692;1259;61090;-26
2024/03/10 10:31:15;;;;;;;13.60;8.30;;;;;;;15.04;26.58;98932.20;105880;1251;75170;-26
2024/03/10 10:33:45;;;;;;;15.20;8.50;;;;;;;15.69;25.56;98931.09;105707;1259;75730;-26
2024/03/10 10:36:13;;;;;;;13.40;7.60;;;;;;;16.20;25.24;98936.65;105715;1255;72531;-27
2024/03/10 10:38:45;;;;;;;11.70;6.50;;;;;;;16.08;24.76;98931.96;105639;1251;61068;-26
2024/03/10 10:41:12;;;;;;;9.30;5.70;;;;;;;16.90;24.62;98930.73;105802;1256;61164;-27
2024/03/10 10:43:39;;;;;;;15.80;6.80;;;;;;;17.22;24.34;98934.09;105887;1251;73863;-26
2024/03/10 10:46:06;;;;;;;17.20;7.90;;;;;;;16.77;24.05;98936.55;105954;1251;75707;-26
2024/03/10 10:48:36;;;;;;;13.70;8.60;;;;;;;17.03;24.40;98939.11;105981;1252;71909;-26
2024/03/10 10:51:06;;;;;;;12.20;7.50;;;;;;;16.86;24.17;98942.05;105702;1254;61802;-26
2024/03/10 10:53:33;;;;;;;12.00;7.30;;;;;;;16.66;23.87;98940.87;105922;1252;61102;-27
2024/03/10 10:56:01;;;;;;;16.40;8.00;;;;;;;16.96;24.03;98938.39;105946;1255;74682;-27
2024/03/10 10:58:31;;;;;;;12.30;6.70;;;;;;;17.17;23.22;98934.16;105812;1257;74895;-26
2024/03/10 11:01:00;;;;;;;10.00;5.80;;;;;;;17.58;23.27;98931.56;105654;1251;72416;-26
2024/03/10 11:03:32;;;;;;;10.60;6.50;;;;;;;17.50;22.09;98931.20;105893;1251;61070;-26
2024/03/10 11:06:02;;;;;;;9.90;5.50;;;;;;;17.74;22.75;98935.34;105691;1252;61746;-26
2024/03/10 11:08:30;;;;;;;11.70;6.70;;;;;;;17.94;22.48;98933.63;105941;1251;73854;-27
2024/03/10 11:10:57;;;;;;;14.30;8.10;;;;;;;18.13;22.09;98931.34;105644;1251;74425;-27
2024/03/10 11:13:28;;;;;;;9.60;6.60;;;;;;;17.87;21.97;98931.41;105664;1251;72494;-26
2024/03/10 11:16:11;;;;;;;12.70;7.40;;;;;;;17.69;22.31;98926.76;105914;1251;61070;-26
2024/03/10 11:18:39;;;;;;;10.40;6.60;;;;;;;16.45;23.49;98930.91;105655;1257;61086;-27
2024/03/10 11:21:12;;;;;;;52.40;26.80;;;;;;;16.44;23.34;98929.34;105774;1252;73656;-26
2024/03/10 11:23:42;;;;;;;14.50;8.00;;;;;;;17.41;22.24;98928.88;105713;1252;75318;-26
2024/03/10 11:26:12;;;;;;;14.40;8.30;;;;;;;16.38;23.20;98929.95;105868;1251;72472;-26
2024/03/10 11:28:52;;;;;;;10.50;6.60;;;;;;;16.59;23.35;98932.04;105529;1253;61120;-26
2024/03/10 11:31:22;;;;;;;13.80;6.70;;;;;;;17.42;22.94;98929.30;105665;1257;61313;-27
2024/03/10 11:33:59;;;;;;;25.20;15.00;;;;;;;17.20;22.91;98929.59;105881;1252;73071;-27
2024/03/10 11:36:33;;;;;;;11.30;7.40;;;;;;;15.32;24.81;98928.52;105935;1251;73132;-27
2024/03/10 11:39:01;;;;;;;11.70;6.50;;;;;;;15.68;24.58;98932.79;105707;1260;74199;-27
2024/03/10 11:41:28;;;;;;;12.10;7.90;;;;;;;15.72;24.68;98930.96;105900;1254;61140;-27
2024/03/10 11:43:57;;;;;;;13.10;7.30;;;;;;;14.72;24.97;98925.22;105930;1252;61160;-27
2024/03/10 11:46:29;;;;;;;12.90;6.70;;;;;;;14.39;25.18;98924.13;105940;1251;72909;-27
2024/03/10 11:48:56;;;;;;;17.10;8.30;;;;;;;14.54;25.18;98926.30;105730;1251;73207;-27
2024/03/10 11:51:33;;;;;;;21.30;12.20;;;;;;;14.57;25.47;98926.41;105737;1258;73896;-27
2024/03/10 11:54:03;;;;;;;17.10;11.40;;;;;;;15.30;25.20;98925.55;105591;1254;61188;-27
2024/03/10 11:56:33;;;;;;;15.40;7.20;;;;;;;15.38;24.27;98922.88;105544;1260;61634;-26
2024/03/10 11:59:03;;;;;;;12.70;6.20;;;;;;;15.47;23.92;98919.77;105650;1251;75113;-27
2024/03/10 12:01:30;;;;;;;9.70;5.50;;;;;;;15.90;23.86;98921.23;105744;1260;73277;-27
2024/03/10 12:04:05;;;;;;;9.30;5.10;;;;;;;16.40;22.96;98920.23;105706;1251;72405;-26
2024/03/10 12:06:32;;;;;;;16.30;8.30;;;;;;;16.09;23.25;98918.20;105746;1257;61820;-27
2024/03/10 12:09:09;;;;;;;16.40;8.70;;;;;;;15.94;23.48;98921.08;105917;1251;61093;-27
2024/03/10 12:11:36;;;;;;;17.80;9.60;;;;;;;15.69;24.02;98918.44;105875;1252;74628;-27
2024/03/10 12:14:08;;;;;;;10.00;6.10;;;;;;;15.59;23.49;98921.46;105946;1252;74098;-26
2024/03/10 12:16:47;;;;;;;14.20;5.50;;;;;;;15.90;23.72;98921.11;105569;1251;71433;-27
2024/03/10 12:19:15;;;;;;;73.80;41.40;;;;;;;15.59;24.13;98919.93;105666;1251;61003;-27
2024/03/10 12:21:45;;;;;;;20.10;12.60;;;;;;;13.80;26.07;98915.23;105974;1260;61077;-27
2024/03/10 12:24:12;;;;;;;9.20;5.40;;;;;;;12.84;27.51;98913.41;105731;1260;74034;-27
2024/03/10 12:26:39;;;;;;;11.40;5.30;;;;;;;13.63;26.51;98912.15;105952;1251;75827;-26
2024/03/10 12:29:07;;;;;;;8.90;4.90;;;;;;;14.57;25.46;98912.64;105705;1256;73938;-27
2024/03/10 12:31:35;;;;;;;8.80;5.20;;;;;;;15.09;25.14;98914.20;105818;1256;61087;-27
2024/03/10 12:34:02;;;;;;;10.40;6.80;;;;;;;15.16;24.84;98910.83;105813;1257;61153;-27
2024/03/10 12:36:33;;;;;;;6.00;3.90;;;;;;;15.44;24.72;98910.83;105926;1251;73774;-27
2024/03/10 12:39:00;;;;;;;9.50;5.20;;;;;;;15.45;24.69;98909.45;105942;1256;74372;-27
2024/03/10 12:41:28;;;;;;;7.70;5.30;;;;;;;14.44;25.18;98908.27;105809;1251;72136;-27
2024/03/10 12:43:56;;;;;;;10.30;4.80;;;;;;;14.78;26.09;98915.20;105657;1254;61041;-26
2024/03/10 12:46:23;;;;;;;11.10;5.10;;;;;;;14.33;27.16;98913.23;105845;1257;61169;-27
2024/03/10 12:48:52;;;;;;;9.90;5.30;;;;;;;14.28;26.69;98910.02;105969;1251;73070;-27
2024/03/10 12:51:19;;;;;;;11.10;6.30;;;;;;;13.85;27.28;98910.73;105941;1251;74441;-27
2024/03/10 12:53:46;;;;;;;8.00;4.60;;;;;;;13.52;27.95;98917.20;105962;1257;71778;-26
2024/03/10 12:56:13;;;;;;;12.60;5.80;;;;;;;13.44;27.70;98916.73;105892;1254;61584;-26